sensor_id;sensor_type;location;lat;lon;timestamp;pressure;altitude;pressure_sealevel;temperature;humidity
55424;BME280;41294;42.666;23.350;2023-02-19T00:01:53;95305.44;;;7.72;67.99
55424;BME280;41294;42.666;23.350;2023-02-19T00:04:20;95302.47;;;7.38;68.95
55424;BME280;41294;42.666;23.350;2023-02-19T00:06:47;95310.31;;;7.38;68.80
55424;BME280;41294;42.666;23.350;2023-02-19T00:09:14;95301.88;;;7.31;69.09
55424;BME280;41294;42.666;23.350;2023-02-19T00:11:41;95289.66;;;7.24;69.58
55424;BME280;41294;42.666;23.350;2023-02-19T00:14:07;95300.22;;;7.21;69.84
55424;BME280;41294;42.666;23.350;2023-02-19T00:16:35;95297.41;;;7.12;70.36
55424;BME280;41294;42.666;23.350;2023-02-19T00:19:03;95294.88;;;7.08;70.13
55424;BME280;41294;42.666;23.350;2023-02-19T00:21:29;95292.97;;;6.93;71.15
55424;BME280;41294;42.666;23.350;2023-02-19T00:23:57;95291.88;;;6.90;71.19
55424;BME280;41294;42.666;23.350;2023-02-19T00:26:23;95295.50;;;6.96;70.44
55424;BME280;41294;42.666;23.350;2023-02-19T00:28:50;95296.38;;;6.90;70.72
55424;BME280;41294;42.666;23.350;2023-02-19T00:33:42;95278.13;;;6.86;71.53
55424;BME280;41294;42.666;23.350;2023-02-19T00:36:07;95287.53;;;6.84;71.33
55424;BME280;41294;42.666;23.350;2023-02-19T00:38:37;95281.28;;;6.78;71.44
55424;BME280;41294;42.666;23.350;2023-02-19T00:41:03;95280.50;;;6.81;71.57
55424;BME280;41294;42.666;23.350;2023-02-19T00:46:13;95281.16;;;6.65;72.53
55424;BME280;41294;42.666;23.350;2023-02-19T00:48:39;95280.50;;;6.61;72.10
55424;BME280;41294;42.666;23.350;2023-02-19T00:51:04;95276.94;;;6.52;72.76
55424;BME280;41294;42.666;23.350;2023-02-19T00:53:29;95266.06;;;6.34;73.73
55424;BME280;41294;42.666;23.350;2023-02-19T00:55:55;95267.53;;;6.35;73.96
55424;BME280;41294;42.666;23.350;2023-02-19T00:58:20;95281.03;;;6.34;74.26
55424;BME280;41294;42.666;23.350;2023-02-19T01:00:46;95259.19;;;6.44;72.87
55424;BME280;41294;42.666;23.350;2023-02-19T01:03:11;95251.53;;;6.53;72.58
55424;BME280;41294;42.666;23.350;2023-02-19T01:05:37;95267.63;;;6.51;73.05
55424;BME280;41294;42.666;23.350;2023-02-19T01:08:02;95269.44;;;6.35;73.11
55424;BME280;41294;42.666;23.350;2023-02-19T01:10:28;95268.41;;;6.29;73.64
55424;BME280;41294;42.666;23.350;2023-02-19T01:12:53;95255.94;;;6.36;73.29
55424;BME280;41294;42.666;23.350;2023-02-19T01:15:19;95271.44;;;6.27;74.09
55424;BME280;41294;42.666;23.350;2023-02-19T01:17:44;95265.41;;;6.30;73.26
55424;BME280;41294;42.666;23.350;2023-02-19T01:20:09;95252.47;;;6.43;73.19
55424;BME280;41294;42.666;23.350;2023-02-19T01:22:35;95271.91;;;6.42;73.41
55424;BME280;41294;42.666;23.350;2023-02-19T01:25:00;95249.94;;;6.39;73.52
55424;BME280;41294;42.666;23.350;2023-02-19T01:27:26;95272.47;;;6.53;73.18
55424;BME280;41294;42.666;23.350;2023-02-19T01:29:52;95266.41;;;6.55;73.58
55424;BME280;41294;42.666;23.350;2023-02-19T01:32:17;95285.81;;;6.58;73.09
55424;BME280;41294;42.666;23.350;2023-02-19T01:34:43;95277.53;;;6.59;72.96
55424;BME280;41294;42.666;23.350;2023-02-19T01:37:08;95282.97;;;6.68;73.34
55424;BME280;41294;42.666;23.350;2023-02-19T01:39:39;95276.00;;;6.62;73.58
55424;BME280;41294;42.666;23.350;2023-02-19T01:42:11;95283.13;;;6.61;73.16
55424;BME280;41294;42.666;23.350;2023-02-19T01:47:02;95303.00;;;6.55;73.72
55424;BME280;41294;42.666;23.350;2023-02-19T01:49:31;95319.19;;;6.51;73.58
55424;BME280;41294;42.666;23.350;2023-02-19T01:52:17;95309.94;;;6.46;73.60
55424;BME280;41294;42.666;23.350;2023-02-19T01:54:45;95318.41;;;6.31;74.27
55424;BME280;41294;42.666;23.350;2023-02-19T01:57:16;95318.66;;;6.17;74.34
55424;BME280;41294;42.666;23.350;2023-02-19T01:59:42;95303.13;;;6.10;74.56
55424;BME280;41294;42.666;23.350;2023-02-19T02:02:08;95323.31;;;6.06;74.97
55424;BME280;41294;42.666;23.350;2023-02-19T02:04:34;95313.44;;;5.94;76.38
55424;BME280;41294;42.666;23.350;2023-02-19T02:07:01;95297.81;;;6.13;75.45
55424;BME280;41294;42.666;23.350;2023-02-19T02:09:29;95319.44;;;6.14;75.50
55424;BME280;41294;42.666;23.350;2023-02-19T02:12:14;95308.94;;;6.17;75.17
55424;BME280;41294;42.666;23.350;2023-02-19T02:14:42;95298.41;;;6.21;74.94
55424;BME280;41294;42.666;23.350;2023-02-19T02:17:25;95300.47;;;6.33;73.88
55424;BME280;41294;42.666;23.350;2023-02-19T02:22:43;95302.38;;;6.29;74.34
55424;BME280;41294;42.666;23.350;2023-02-19T02:30:53;95315.28;;;6.39;74.89
55424;BME280;41294;42.666;23.350;2023-02-19T02:33:34;95306.44;;;6.53;73.33
55424;BME280;41294;42.666;23.350;2023-02-19T02:36:06;95304.69;;;6.65;72.84
55424;BME280;41294;42.666;23.350;2023-02-19T02:38:36;95298.00;;;6.84;72.13
55424;BME280;41294;42.666;23.350;2023-02-19T02:41:04;95303.28;;;6.80;71.99
55424;BME280;41294;42.666;23.350;2023-02-19T02:43:30;95307.84;;;6.76;72.22
55424;BME280;41294;42.666;23.350;2023-02-19T02:45:56;95303.69;;;6.59;72.76
55424;BME280;41294;42.666;23.350;2023-02-19T02:48:26;95304.22;;;6.51;73.31
55424;BME280;41294;42.666;23.350;2023-02-19T02:51:05;95298.28;;;6.28;74.24
55424;BME280;41294;42.666;23.350;2023-02-19T02:53:37;95299.34;;;6.11;74.70
55424;BME280;41294;42.666;23.350;2023-02-19T02:56:25;95299.34;;;6.11;74.42
55424;BME280;41294;42.666;23.350;2023-02-19T02:58:51;95300.28;;;6.01;74.62
55424;BME280;41294;42.666;23.350;2023-02-19T03:04:12;95306.06;;;5.89;75.02
55424;BME280;41294;42.666;23.350;2023-02-19T03:06:39;95305.88;;;5.76;75.82
55424;BME280;41294;42.666;23.350;2023-02-19T03:09:21;95304.56;;;5.65;76.33
55424;BME280;41294;42.666;23.350;2023-02-19T03:11:53;95315.19;;;5.51;77.52
55424;BME280;41294;42.666;23.350;2023-02-19T03:14:42;95314.84;;;5.49;77.08
55424;BME280;41294;42.666;23.350;2023-02-19T03:17:37;95322.47;;;5.63;77.33
55424;BME280;41294;42.666;23.350;2023-02-19T03:20:23;95317.56;;;5.42;78.52
55424;BME280;41294;42.666;23.350;2023-02-19T03:22:51;95332.63;;;5.31;79.12
55424;BME280;41294;42.666;23.350;2023-02-19T03:25:27;95344.19;;;5.57;78.56
55424;BME280;41294;42.666;23.350;2023-02-19T03:28:14;95341.53;;;5.60;77.84
55424;BME280;41294;42.666;23.350;2023-02-19T03:30:46;95336.56;;;5.69;77.05
55424;BME280;41294;42.666;23.350;2023-02-19T03:33:18;95342.00;;;5.81;76.88
55424;BME280;41294;42.666;23.350;2023-02-19T03:35:48;95335.69;;;5.79;77.27
55424;BME280;41294;42.666;23.350;2023-02-19T03:38:21;95353.72;;;5.70;77.19
55424;BME280;41294;42.666;23.350;2023-02-19T03:41:08;95352.72;;;5.61;77.48
55424;BME280;41294;42.666;23.350;2023-02-19T03:43:39;95356.22;;;5.51;77.86
55424;BME280;41294;42.666;23.350;2023-02-19T03:46:11;95355.09;;;5.52;78.30
55424;BME280;41294;42.666;23.350;2023-02-19T03:48:50;95366.97;;;5.56;78.37
55424;BME280;41294;42.666;23.350;2023-02-19T03:51:36;95360.31;;;5.52;78.00
55424;BME280;41294;42.666;23.350;2023-02-19T03:54:31;95362.94;;;5.52;78.28
55424;BME280;41294;42.666;23.350;2023-02-19T03:57:04;95367.50;;;5.44;77.82
55424;BME280;41294;42.666;23.350;2023-02-19T03:59:39;95372.56;;;5.28;78.68
55424;BME280;41294;42.666;23.350;2023-02-19T04:02:13;95375.94;;;5.25;78.92
55424;BME280;41294;42.666;23.350;2023-02-19T04:05:04;95369.25;;;5.24;79.07
55424;BME280;41294;42.666;23.350;2023-02-19T04:07:34;95375.13;;;5.32;78.76
55424;BME280;41294;42.666;23.350;2023-02-19T04:10:02;95367.03;;;5.23;79.15
55424;BME280;41294;42.666;23.350;2023-02-19T04:12:29;95372.13;;;5.03;80.39
55424;BME280;41294;42.666;23.350;2023-02-19T04:15:14;95369.53;;;5.03;80.38
55424;BME280;41294;42.666;23.350;2023-02-19T04:17:50;95380.53;;;5.14;80.05
55424;BME280;41294;42.666;23.350;2023-02-19T04:20:18;95378.94;;;4.94;80.27
55424;BME280;41294;42.666;23.350;2023-02-19T04:22:45;95385.09;;;5.10;80.17
55424;BME280;41294;42.666;23.350;2023-02-19T04:25:11;95376.28;;;4.97;80.01
55424;BME280;41294;42.666;23.350;2023-02-19T04:27:37;95381.84;;;4.99;80.28
55424;BME280;41294;42.666;23.350;2023-02-19T04:30:05;95387.91;;;4.89;80.19
55424;BME280;41294;42.666;23.350;2023-02-19T04:32:31;95386.09;;;4.87;80.52
55424;BME280;41294;42.666;23.350;2023-02-19T04:34:56;95382.38;;;4.84;81.44
55424;BME280;41294;42.666;23.350;2023-02-19T04:37:21;95385.94;;;5.00;80.50
55424;BME280;41294;42.666;23.350;2023-02-19T04:39:47;95381.69;;;4.80;81.24
55424;BME280;41294;42.666;23.350;2023-02-19T04:42:13;95384.69;;;4.79;81.56
55424;BME280;41294;42.666;23.350;2023-02-19T04:44:39;95378.34;;;4.80;81.67
55424;BME280;41294;42.666;23.350;2023-02-19T04:47:04;95378.66;;;4.85;80.81
55424;BME280;41294;42.666;23.350;2023-02-19T04:49:30;95381.75;;;4.77;81.15
55424;BME280;41294;42.666;23.350;2023-02-19T04:51:55;95376.63;;;4.66;81.86
55424;BME280;41294;42.666;23.350;2023-02-19T04:54:20;95385.63;;;4.58;82.05
55424;BME280;41294;42.666;23.350;2023-02-19T04:56:46;95396.03;;;4.62;82.44
55424;BME280;41294;42.666;23.350;2023-02-19T04:59:11;95397.63;;;4.52;82.34
55424;BME280;41294;42.666;23.350;2023-02-19T05:01:37;95391.69;;;4.52;82.59
55424;BME280;41294;42.666;23.350;2023-02-19T05:04:03;95396.50;;;4.53;82.42
55424;BME280;41294;42.666;23.350;2023-02-19T05:06:29;95399.06;;;4.57;82.55
55424;BME280;41294;42.666;23.350;2023-02-19T05:08:54;95400.47;;;4.65;82.18
55424;BME280;41294;42.666;23.350;2023-02-19T05:11:19;95401.19;;;4.69;81.67
55424;BME280;41294;42.666;23.350;2023-02-19T05:13:47;95403.16;;;4.58;81.72
55424;BME280;41294;42.666;23.350;2023-02-19T05:16:13;95407.94;;;4.63;81.38
55424;BME280;41294;42.666;23.350;2023-02-19T05:18:41;95399.84;;;4.54;82.19
55424;BME280;41294;42.666;23.350;2023-02-19T05:21:06;95412.53;;;4.52;83.15
55424;BME280;41294;42.666;23.350;2023-02-19T05:23:32;95398.31;;;4.60;82.45
55424;BME280;41294;42.666;23.350;2023-02-19T05:25:57;95407.13;;;4.69;82.00
55424;BME280;41294;42.666;23.350;2023-02-19T05:28:23;95399.84;;;4.54;83.94
55424;BME280;41294;42.666;23.350;2023-02-19T05:30:53;95408.09;;;4.86;82.01
55424;BME280;41294;42.666;23.350;2023-02-19T05:33:20;95411.56;;;4.76;81.91
55424;BME280;41294;42.666;23.350;2023-02-19T05:35:50;95415.06;;;4.95;82.01
55424;BME280;41294;42.666;23.350;2023-02-19T05:38:16;95417.06;;;5.14;80.71
55424;BME280;41294;42.666;23.350;2023-02-19T05:40:43;95421.47;;;5.21;80.36
55424;BME280;41294;42.666;23.350;2023-02-19T05:43:09;95422.63;;;5.50;79.76
55424;BME280;41294;42.666;23.350;2023-02-19T05:45:35;95425.75;;;5.94;78.07
55424;BME280;41294;42.666;23.350;2023-02-19T05:48:01;95423.53;;;6.19;76.69
55424;BME280;41294;42.666;23.350;2023-02-19T05:50:27;95419.16;;;6.12;75.76
55424;BME280;41294;42.666;23.350;2023-02-19T05:52:52;95434.66;;;6.46;75.97
55424;BME280;41294;42.666;23.350;2023-02-19T05:55:18;95415.72;;;7.03;73.68
55424;BME280;41294;42.666;23.350;2023-02-19T05:57:45;95424.28;;;7.62;71.09
55424;BME280;41294;42.666;23.350;2023-02-19T06:00:14;95429.34;;;8.04;69.26
55424;BME280;41294;42.666;23.350;2023-02-19T06:02:40;95420.97;;;8.44;67.74
55424;BME280;41294;42.666;23.350;2023-02-19T06:05:06;95446.53;;;8.72;65.78
55424;BME280;41294;42.666;23.350;2023-02-19T06:07:32;95435.63;;;8.58;65.18
55424;BME280;41294;42.666;23.350;2023-02-19T06:09:58;95442.69;;;9.05;64.23
55424;BME280;41294;42.666;23.350;2023-02-19T06:12:23;95452.63;;;9.79;61.68
55424;BME280;41294;42.666;23.350;2023-02-19T06:14:49;95448.88;;;10.30;60.33
55424;BME280;41294;42.666;23.350;2023-02-19T06:17:15;95449.94;;;10.32;59.96
55424;BME280;41294;42.666;23.350;2023-02-19T06:19:41;95448.38;;;10.10;60.36
55424;BME280;41294;42.666;23.350;2023-02-19T06:22:06;95455.53;;;10.09;60.13
55424;BME280;41294;42.666;23.350;2023-02-19T06:24:32;95451.06;;;9.81;61.14
55424;BME280;41294;42.666;23.350;2023-02-19T06:26:58;95446.22;;;9.80;60.69
55424;BME280;41294;42.666;23.350;2023-02-19T06:29:24;95452.31;;;9.89;60.99
55424;BME280;41294;42.666;23.350;2023-02-19T06:31:49;95450.34;;;9.93;60.80
55424;BME280;41294;42.666;23.350;2023-02-19T06:34:15;95446.22;;;9.68;61.48
55424;BME280;41294;42.666;23.350;2023-02-19T06:36:40;95450.56;;;9.86;61.47
55424;BME280;41294;42.666;23.350;2023-02-19T06:39:06;95452.00;;;9.87;61.17
55424;BME280;41294;42.666;23.350;2023-02-19T06:41:32;95450.16;;;10.13;60.59
55424;BME280;41294;42.666;23.350;2023-02-19T06:43:57;95451.09;;;10.44;59.18
55424;BME280;41294;42.666;23.350;2023-02-19T06:46:23;95451.19;;;10.99;57.97
55424;BME280;41294;42.666;23.350;2023-02-19T06:48:49;95448.91;;;11.65;56.03
55424;BME280;41294;42.666;23.350;2023-02-19T06:51:16;95442.38;;;12.57;53.67
55424;BME280;41294;42.666;23.350;2023-02-19T06:53:43;95449.81;;;13.07;51.95
55424;BME280;41294;42.666;23.350;2023-02-19T06:56:35;95443.00;;;13.68;50.33
55424;BME280;41294;42.666;23.350;2023-02-19T06:59:02;95448.94;;;14.04;48.96
55424;BME280;41294;42.666;23.350;2023-02-19T07:01:30;95453.75;;;14.56;47.91
55424;BME280;41294;42.666;23.350;2023-02-19T07:03:56;95450.78;;;14.86;47.15
55424;BME280;41294;42.666;23.350;2023-02-19T07:06:24;95457.22;;;15.32;46.37
55424;BME280;41294;42.666;23.350;2023-02-19T07:08:50;95466.63;;;15.57;45.10
55424;BME280;41294;42.666;23.350;2023-02-19T07:11:16;95460.50;;;15.94;43.94
55424;BME280;41294;42.666;23.350;2023-02-19T07:13:43;95454.41;;;16.37;42.74
55424;BME280;41294;42.666;23.350;2023-02-19T07:16:09;95457.69;;;16.80;42.04
55424;BME280;41294;42.666;23.350;2023-02-19T07:18:37;95464.00;;;17.03;41.19
55424;BME280;41294;42.666;23.350;2023-02-19T07:21:04;95450.38;;;17.55;40.14
55424;BME280;41294;42.666;23.350;2023-02-19T07:23:30;95441.28;;;17.67;39.62
55424;BME280;41294;42.666;23.350;2023-02-19T07:25:56;95435.66;;;17.85;39.51
55424;BME280;41294;42.666;23.350;2023-02-19T07:28:21;95433.94;;;18.43;38.72
55424;BME280;41294;42.666;23.350;2023-02-19T07:30:46;95435.28;;;18.64;38.07
55424;BME280;41294;42.666;23.350;2023-02-19T07:33:12;95427.94;;;19.06;36.98
55424;BME280;41294;42.666;23.350;2023-02-19T07:35:44;95426.84;;;19.35;36.09
55424;BME280;41294;42.666;23.350;2023-02-19T07:38:10;95422.75;;;19.50;36.50
55424;BME280;41294;42.666;23.350;2023-02-19T07:40:35;95422.59;;;19.97;35.52
55424;BME280;41294;42.666;23.350;2023-02-19T07:43:02;95421.84;;;20.30;35.10
55424;BME280;41294;42.666;23.350;2023-02-19T07:45:27;95417.50;;;20.27;35.09
55424;BME280;41294;42.666;23.350;2023-02-19T07:47:53;95424.75;;;20.48;35.10
55424;BME280;41294;42.666;23.350;2023-02-19T07:50:18;95417.22;;;20.41;34.75
55424;BME280;41294;42.666;23.350;2023-02-19T07:52:44;95422.97;;;20.89;33.92
55424;BME280;41294;42.666;23.350;2023-02-19T07:55:09;95416.03;;;20.20;34.38
55424;BME280;41294;42.666;23.350;2023-02-19T07:57:34;95417.63;;;20.67;34.27
55424;BME280;41294;42.666;23.350;2023-02-19T08:00:00;95417.34;;;20.98;33.88
55424;BME280;41294;42.666;23.350;2023-02-19T08:02:25;95416.50;;;21.25;33.15
55424;BME280;41294;42.666;23.350;2023-02-19T08:05:09;95420.47;;;21.93;32.47
55424;BME280;41294;42.666;23.350;2023-02-19T08:07:36;95408.97;;;21.98;32.05
55424;BME280;41294;42.666;23.350;2023-02-19T08:10:03;95417.41;;;21.84;32.36
55424;BME280;41294;42.666;23.350;2023-02-19T08:12:58;95412.03;;;22.13;32.17
55424;BME280;41294;42.666;23.350;2023-02-19T08:15:45;95399.34;;;22.14;31.58
55424;BME280;41294;42.666;23.350;2023-02-19T08:18:11;95403.63;;;22.28;31.27
55424;BME280;41294;42.666;23.350;2023-02-19T08:20:37;95401.38;;;22.37;31.38
55424;BME280;41294;42.666;23.350;2023-02-19T08:23:03;95411.59;;;22.86;30.99
55424;BME280;41294;42.666;23.350;2023-02-19T08:25:28;95405.13;;;22.52;30.89
55424;BME280;41294;42.666;23.350;2023-02-19T08:27:54;95401.94;;;23.38;30.06
55424;BME280;41294;42.666;23.350;2023-02-19T08:30:20;95395.72;;;22.88;30.47
55424;BME280;41294;42.666;23.350;2023-02-19T08:32:46;95395.38;;;22.73;30.88
55424;BME280;41294;42.666;23.350;2023-02-19T08:35:11;95394.53;;;22.84;30.76
55424;BME280;41294;42.666;23.350;2023-02-19T08:37:36;95399.19;;;23.25;29.97
55424;BME280;41294;42.666;23.350;2023-02-19T08:40:02;95396.47;;;22.83;30.47
55424;BME280;41294;42.666;23.350;2023-02-19T08:42:28;95392.00;;;23.15;30.23
55424;BME280;41294;42.666;23.350;2023-02-19T08:44:53;95397.19;;;23.63;29.76
55424;BME280;41294;42.666;23.350;2023-02-19T08:47:19;95388.00;;;23.40;29.35
55424;BME280;41294;42.666;23.350;2023-02-19T08:49:44;95386.38;;;23.13;30.18
55424;BME280;41294;42.666;23.350;2023-02-19T08:52:10;95379.25;;;23.52;30.00
55424;BME280;41294;42.666;23.350;2023-02-19T08:54:35;95386.56;;;24.33;28.73
55424;BME280;41294;42.666;23.350;2023-02-19T08:57:01;95380.50;;;24.71;28.52
55424;BME280;41294;42.666;23.350;2023-02-19T08:59:27;95373.66;;;24.70;27.98
55424;BME280;41294;42.666;23.350;2023-02-19T09:01:53;95377.56;;;24.30;28.53
55424;BME280;41294;42.666;23.350;2023-02-19T09:04:18;95375.25;;;23.77;29.27
55424;BME280;41294;42.666;23.350;2023-02-19T09:06:44;95370.06;;;24.23;29.01
55424;BME280;41294;42.666;23.350;2023-02-19T09:09:09;95354.53;;;24.61;29.18
55424;BME280;41294;42.666;23.350;2023-02-19T09:11:38;95349.69;;;24.15;29.41
55424;BME280;41294;42.666;23.350;2023-02-19T09:14:03;95345.66;;;23.77;29.66
55424;BME280;41294;42.666;23.350;2023-02-19T09:16:32;95350.69;;;23.68;30.36
55424;BME280;41294;42.666;23.350;2023-02-19T09:18:57;95340.34;;;24.03;29.53
55424;BME280;41294;42.666;23.350;2023-02-19T09:21:23;95333.41;;;23.63;30.33
55424;BME280;41294;42.666;23.350;2023-02-19T09:23:48;95337.28;;;24.38;29.20
55424;BME280;41294;42.666;23.350;2023-02-19T09:26:14;95323.22;;;23.56;29.78
55424;BME280;41294;42.666;23.350;2023-02-19T09:28:40;95341.88;;;23.86;31.83
55424;BME280;41294;42.666;23.350;2023-02-19T09:31:07;95345.19;;;24.49;30.23
55424;BME280;41294;42.666;23.350;2023-02-19T09:33:33;95322.81;;;23.84;30.38
55424;BME280;41294;42.666;23.350;2023-02-19T09:35:59;95331.13;;;23.67;30.61
55424;BME280;41294;42.666;23.350;2023-02-19T09:38:28;95328.06;;;23.76;30.78
55424;BME280;41294;42.666;23.350;2023-02-19T09:40:56;95323.44;;;23.58;31.30
55424;BME280;41294;42.666;23.350;2023-02-19T09:43:25;95328.03;;;23.63;30.69
55424;BME280;41294;42.666;23.350;2023-02-19T09:46:00;95317.25;;;23.14;31.18
55424;BME280;41294;42.666;23.350;2023-02-19T09:48:27;95332.31;;;22.61;31.42
55424;BME280;41294;42.666;23.350;2023-02-19T09:50:53;95322.38;;;22.75;31.51
55424;BME280;41294;42.666;23.350;2023-02-19T09:53:23;95310.50;;;23.25;30.95
55424;BME280;41294;42.666;23.350;2023-02-19T09:55:51;95316.25;;;23.17;30.86
55424;BME280;41294;42.666;23.350;2023-02-19T09:58:45;95304.03;;;23.16;30.99
55424;BME280;41294;42.666;23.350;2023-02-19T10:01:11;95294.38;;;22.89;31.42
55424;BME280;41294;42.666;23.350;2023-02-19T10:03:38;95286.13;;;23.05;30.63
55424;BME280;41294;42.666;23.350;2023-02-19T10:06:26;95276.81;;;22.88;30.85
55424;BME280;41294;42.666;23.350;2023-02-19T10:09:16;95283.66;;;23.07;30.86
55424;BME280;41294;42.666;23.350;2023-02-19T10:11:43;95272.53;;;22.98;30.85
55424;BME280;41294;42.666;23.350;2023-02-19T10:14:16;95260.41;;;23.10;30.41
55424;BME280;41294;42.666;23.350;2023-02-19T10:16:45;95270.22;;;22.70;30.43
55424;BME280;41294;42.666;23.350;2023-02-19T10:19:12;95259.69;;;22.30;31.65
55424;BME280;41294;42.666;23.350;2023-02-19T10:21:38;95247.50;;;22.71;30.92
55424;BME280;41294;42.666;23.350;2023-02-19T10:24:05;95249.03;;;22.67;31.05
55424;BME280;41294;42.666;23.350;2023-02-19T10:26:31;95240.03;;;22.22;31.15
55424;BME280;41294;42.666;23.350;2023-02-19T10:29:01;95242.44;;;22.26;31.08
55424;BME280;41294;42.666;23.350;2023-02-19T10:31:30;95240.25;;;22.48;31.20
55424;BME280;41294;42.666;23.350;2023-02-19T10:33:58;95234.09;;;22.29;31.16
55424;BME280;41294;42.666;23.350;2023-02-19T10:36:36;95226.84;;;22.00;31.38
55424;BME280;41294;42.666;23.350;2023-02-19T10:39:41;95221.44;;;22.06;31.60
55424;BME280;41294;42.666;23.350;2023-02-19T10:42:20;95223.63;;;22.31;31.35
55424;BME280;41294;42.666;23.350;2023-02-19T10:44:50;95210.78;;;22.42;31.18
55424;BME280;41294;42.666;23.350;2023-02-19T10:47:20;95202.66;;;22.66;30.54
55424;BME280;41294;42.666;23.350;2023-02-19T10:49:47;95196.63;;;22.42;30.89
55424;BME280;41294;42.666;23.350;2023-02-19T10:52:14;95195.69;;;21.97;31.35
55424;BME280;41294;42.666;23.350;2023-02-19T10:54:42;95192.41;;;21.86;31.51
55424;BME280;41294;42.666;23.350;2023-02-19T10:57:21;95188.41;;;21.45;31.74
55424;BME280;41294;42.666;23.350;2023-02-19T10:59:56;95178.34;;;21.56;32.08
55424;BME280;41294;42.666;23.350;2023-02-19T11:02:22;95179.56;;;21.26;32.35
55424;BME280;41294;42.666;23.350;2023-02-19T11:05:21;95177.81;;;21.81;31.66
55424;BME280;41294;42.666;23.350;2023-02-19T11:07:56;95163.59;;;22.10;31.40
55424;BME280;41294;42.666;23.350;2023-02-19T11:12:51;95154.47;;;22.74;31.11
55424;BME280;41294;42.666;23.350;2023-02-19T11:15:33;95144.75;;;22.71;30.89
55424;BME280;41294;42.666;23.350;2023-02-19T11:20:59;95138.41;;;22.37;31.01
55424;BME280;41294;42.666;23.350;2023-02-19T11:23:31;95132.53;;;22.57;30.84
55424;BME280;41294;42.666;23.350;2023-02-19T11:26:01;95118.25;;;22.80;30.42
55424;BME280;41294;42.666;23.350;2023-02-19T11:28:37;95117.94;;;22.52;30.58
55424;BME280;41294;42.666;23.350;2023-02-19T11:31:22;95105.13;;;22.45;30.69
55424;BME280;41294;42.666;23.350;2023-02-19T11:37:15;95096.41;;;22.03;30.93
55424;BME280;41294;42.666;23.350;2023-02-19T11:39:47;95091.81;;;22.53;30.20
55424;BME280;41294;42.666;23.350;2023-02-19T11:42:38;95091.75;;;22.58;30.25
55424;BME280;41294;42.666;23.350;2023-02-19T11:50:20;95077.22;;;22.67;30.08
55424;BME280;41294;42.666;23.350;2023-02-19T12:36:49;95009.78;;;21.89;30.48
55424;BME280;41294;42.666;23.350;2023-02-19T12:39:33;94998.13;;;22.05;30.61
55424;BME280;41294;42.666;23.350;2023-02-19T12:44:51;94986.56;;;21.00;31.66
55424;BME280;41294;42.666;23.350;2023-02-19T12:47:21;94976.59;;;20.47;32.11
55424;BME280;41294;42.666;23.350;2023-02-19T12:49:58;94979.81;;;20.05;33.25
55424;BME280;41294;42.666;23.350;2023-02-19T12:52:31;94984.34;;;20.74;32.34
55424;BME280;41294;42.666;23.350;2023-02-19T12:55:08;94969.66;;;19.58;33.72
55424;BME280;41294;42.666;23.350;2023-02-19T12:57:38;94967.38;;;19.79;33.44
55424;BME280;41294;42.666;23.350;2023-02-19T13:02:40;94960.16;;;20.62;32.35
55424;BME280;41294;42.666;23.350;2023-02-19T13:07:56;94947.69;;;19.76;33.57
55424;BME280;41294;42.666;23.350;2023-02-19T13:10:43;94948.50;;;19.66;33.89
55424;BME280;41294;42.666;23.350;2023-02-19T13:13:19;94942.28;;;20.22;33.05
55424;BME280;41294;42.666;23.350;2023-02-19T13:15:49;94940.50;;;20.30;32.87
55424;BME280;41294;42.666;23.350;2023-02-19T13:18:23;94933.22;;;20.30;32.58
55424;BME280;41294;42.666;23.350;2023-02-19T13:20:50;94929.88;;;20.48;32.41
55424;BME280;41294;42.666;23.350;2023-02-19T13:23:39;94932.66;;;20.61;32.32
55424;BME280;41294;42.666;23.350;2023-02-19T13:27:02;94920.25;;;20.87;32.12
55424;BME280;41294;42.666;23.350;2023-02-19T13:38:02;94902.16;;;20.22;32.72
55424;BME280;41294;42.666;23.350;2023-02-19T13:40:32;94902.97;;;19.82;33.07
55424;BME280;41294;42.666;23.350;2023-02-19T13:43:01;94897.34;;;19.85;33.09
55424;BME280;41294;42.666;23.350;2023-02-19T13:45:32;94901.81;;;19.37;33.75
55424;BME280;41294;42.666;23.350;2023-02-19T13:48:01;94896.88;;;19.47;33.70
55424;BME280;41294;42.666;23.350;2023-02-19T13:50:36;94897.97;;;19.33;33.92
55424;BME280;41294;42.666;23.350;2023-02-19T13:59:36;94887.56;;;19.24;33.59
55424;BME280;41294;42.666;23.350;2023-02-19T14:14:55;94876.13;;;19.29;34.23
55424;BME280;41294;42.666;23.350;2023-02-19T14:25:41;94872.91;;;19.36;33.48
55424;BME280;41294;42.666;23.350;2023-02-19T14:28:27;94861.31;;;19.28;33.50
55424;BME280;41294;42.666;23.350;2023-02-19T14:33:50;94847.09;;;19.14;34.11
55424;BME280;41294;42.666;23.350;2023-02-19T14:38:54;94849.41;;;18.83;34.71
55424;BME280;41294;42.666;23.350;2023-02-19T14:41:21;94856.91;;;18.90;34.68
55424;BME280;41294;42.666;23.350;2023-02-19T14:43:49;94854.25;;;18.90;34.89
55424;BME280;41294;42.666;23.350;2023-02-19T14:46:33;94849.88;;;18.87;34.91
55424;BME280;41294;42.666;23.350;2023-02-19T14:49:15;94836.84;;;18.78;35.28
55424;BME280;41294;42.666;23.350;2023-02-19T14:51:47;94843.59;;;18.85;35.54
55424;BME280;41294;42.666;23.350;2023-02-19T14:54:19;94847.81;;;18.64;36.37
55424;BME280;41294;42.666;23.350;2023-02-19T14:56:50;94839.78;;;18.69;36.22
55424;BME280;41294;42.666;23.350;2023-02-19T14:59:22;94837.88;;;18.64;36.31
55424;BME280;41294;42.666;23.350;2023-02-19T15:01:56;94839.81;;;18.64;35.89
55424;BME280;41294;42.666;23.350;2023-02-19T15:04:27;94838.38;;;18.52;36.19
55424;BME280;41294;42.666;23.350;2023-02-19T15:06:54;94829.44;;;18.49;36.62
55424;BME280;41294;42.666;23.350;2023-02-19T15:09:26;94834.25;;;18.56;36.83
55424;BME280;41294;42.666;23.350;2023-02-19T15:11:53;94816.38;;;18.35;37.12
55424;BME280;41294;42.666;23.350;2023-02-19T15:14:21;94825.63;;;18.28;37.09
55424;BME280;41294;42.666;23.350;2023-02-19T15:16:50;94822.72;;;18.15;38.00